sensor_id;sensor_type;location;lat;lon;timestamp;pressure;altitude;pressure_sealevel;temperature;humidity
8585;BME280;7180;52.742;11.420;2023-02-15T00:01:21;102589.06;;;-0.08;100.00
8585;BME280;7180;52.742;11.420;2023-02-15T00:03:50;102587.34;;;-0.09;100.00
8585;BME280;7180;52.742;11.420;2023-02-15T00:06:15;102579.53;;;-0.12;100.00
8585;BME280;7180;52.742;11.420;2023-02-15T00:08:41;102578.69;;;-0.11;100.00
8585;BME280;7180;52.742;11.420;2023-02-15T00:11:08;102578.78;;;-0.05;100.00
8585;BME280;7180;52.742;11.420;2023-02-15T00:13:33;102578.72;;;-0.08;100.00
8585;BME280;7180;52.742;11.420;2023-02-15T00:16:06;102580.53;;;-0.04;100.00
8585;BME280;7180;52.742;11.420;2023-02-15T00:18:32;102586.50;;;-0.07;100.00
8585;BME280;7180;52.742;11.420;2023-02-15T00:20:58;102575.28;;;-0.07;100.00
8585;BME280;7180;52.742;11.420;2023-02-15T00:23:23;102576.03;;;-0.14;100.00
8585;BME280;7180;52.742;11.420;2023-02-15T00:25:49;102570.06;;;-0.10;100.00
8585;BME280;7180;52.742;11.420;2023-02-15T00:28:15;102564.00;;;-0.14;100.00
8585;BME280;7180;52.742;11.420;2023-02-15T00:30:40;102550.25;;;-0.11;100.00
8585;BME280;7180;52.742;11.420;2023-02-15T00:33:05;102551.06;;;-0.12;100.00
8585;BME280;7180;52.742;11.420;2023-02-15T00:35:31;102552.75;;;-0.14;100.00
8585;BME280;7180;52.742;11.420;2023-02-15T00:37:56;102536.28;;;-0.21;100.00
8585;BME280;7180;52.742;11.420;2023-02-15T00:40:21;102535.38;;;-0.24;100.00
8585;BME280;7180;52.742;11.420;2023-02-15T00:42:47;102530.22;;;-0.24;100.00
8585;BME280;7180;52.742;11.420;2023-02-15T00:45:12;102529.28;;;-0.29;100.00
8585;BME280;7180;52.742;11.420;2023-02-15T00:47:37;102523.13;;;-0.34;100.00
8585;BME280;7180;52.742;11.420;2023-02-15T00:50:03;102521.41;;;-0.35;100.00
8585;BME280;7180;52.742;11.420;2023-02-15T00:52:28;102527.38;;;-0.38;100.00
8585;BME280;7180;52.742;11.420;2023-02-15T00:54:53;102524.88;;;-0.33;100.00
8585;BME280;7180;52.742;11.420;2023-02-15T00:57:19;102523.91;;;-0.40;100.00
8585;BME280;7180;52.742;11.420;2023-02-15T00:59:44;102517.91;;;-0.39;100.00
8585;BME280;7180;52.742;11.420;2023-02-15T01:02:09;102520.38;;;-0.43;100.00
8585;BME280;7180;52.742;11.420;2023-02-15T01:04:34;102522.06;;;-0.47;100.00
8585;BME280;7180;52.742;11.420;2023-02-15T01:07:00;102518.63;;;-0.47;100.00
8585;BME280;7180;52.742;11.420;2023-02-15T01:09:26;102519.44;;;-0.50;100.00
8585;BME280;7180;52.742;11.420;2023-02-15T01:11:52;102519.41;;;-0.51;100.00
8585;BME280;7180;52.742;11.420;2023-02-15T01:14:17;102507.22;;;-0.60;100.00
8585;BME280;7180;52.742;11.420;2023-02-15T01:16:42;102504.50;;;-0.66;100.00
8585;BME280;7180;52.742;11.420;2023-02-15T01:19:07;102507.13;;;-0.64;100.00
8585;BME280;7180;52.742;11.420;2023-02-15T01:21:33;102514.09;;;-0.60;100.00
8585;BME280;7180;52.742;11.420;2023-02-15T01:24:00;102507.97;;;-0.65;100.00
8585;BME280;7180;52.742;11.420;2023-02-15T01:26:25;102507.97;;;-0.65;100.00
8585;BME280;7180;52.742;11.420;2023-02-15T01:28:50;102507.94;;;-0.67;100.00
8585;BME280;7180;52.742;11.420;2023-02-15T01:31:18;102508.91;;;-0.60;100.00
8585;BME280;7180;52.742;11.420;2023-02-15T01:33:44;102510.72;;;-0.56;100.00
8585;BME280;7180;52.742;11.420;2023-02-15T01:36:10;102507.22;;;-0.58;100.00
8585;BME280;7180;52.742;11.420;2023-02-15T01:38:35;102510.72;;;-0.56;100.00
8585;BME280;7180;52.742;11.420;2023-02-15T01:41:01;102501.22;;;-0.57;100.00
8585;BME280;7180;52.742;11.420;2023-02-15T01:43:47;102490.66;;;-0.69;100.00
8585;BME280;7180;52.742;11.420;2023-02-15T01:46:15;102487.22;;;-0.68;100.00
8585;BME280;7180;52.742;11.420;2023-02-15T01:48:48;102485.50;;;-0.69;100.00
8585;BME280;7180;52.742;11.420;2023-02-15T01:51:17;102483.72;;;-0.72;100.00
8585;BME280;7180;52.742;11.420;2023-02-15T01:53:50;102478.53;;;-0.75;100.00
8585;BME280;7180;52.742;11.420;2023-02-15T01:56:23;102475.00;;;-0.80;100.00
8585;BME280;7180;52.742;11.420;2023-02-15T01:58:51;102467.09;;;-0.87;100.00
8585;BME280;7180;52.742;11.420;2023-02-15T02:01:19;102473.31;;;-0.78;100.00
8585;BME280;7180;52.742;11.420;2023-02-15T02:04:15;102464.69;;;-0.77;100.00
8585;BME280;7180;52.742;11.420;2023-02-15T02:06:41;102456.78;;;-0.87;100.00
8585;BME280;7180;52.742;11.420;2023-02-15T02:09:06;102460.13;;;-0.93;100.00
8585;BME280;7180;52.742;11.420;2023-02-15T02:11:32;102448.81;;;-0.99;100.00
8585;BME280;7180;52.742;11.420;2023-02-15T02:13:58;102442.75;;;-1.01;100.00
8585;BME280;7180;52.742;11.420;2023-02-15T02:21:35;102447.09;;;-0.99;100.00
8585;BME280;7180;52.742;11.420;2023-02-15T02:24:20;102442.69;;;-1.05;100.00
8585;BME280;7180;52.742;11.420;2023-02-15T02:27:07;102431.47;;;-1.07;100.00
8585;BME280;7180;52.742;11.420;2023-02-15T02:35:22;102417.44;;;-1.19;100.00
8585;BME280;7180;52.742;11.420;2023-02-15T02:38:10;102433.53;;;-0.87;100.00
8585;BME280;7180;52.742;11.420;2023-02-15T02:43:38;102425.59;;;-0.99;100.00
8585;BME280;7180;52.742;11.420;2023-02-15T02:46:10;102428.03;;;-1.06;100.00
8585;BME280;7180;52.742;11.420;2023-02-15T02:48:38;102428.91;;;-1.07;100.00
8585;BME280;7180;52.742;11.420;2023-02-15T02:51:03;102429.03;;;-0.97;100.00
8585;BME280;7180;52.742;11.420;2023-02-15T02:53:30;102426.50;;;-0.96;100.00
8585;BME280;7180;52.742;11.420;2023-02-15T02:55:59;102418.69;;;-0.97;100.00
8585;BME280;7180;52.742;11.420;2023-02-15T02:58:45;102411.84;;;-0.95;100.00
8585;BME280;7180;52.742;11.420;2023-02-15T03:01:16;102425.84;;;-0.83;100.00
8585;BME280;7180;52.742;11.420;2023-02-15T03:03:47;102429.50;;;-0.70;100.00
8585;BME280;7180;52.742;11.420;2023-02-15T03:06:22;102432.97;;;-0.68;100.00
8585;BME280;7180;52.742;11.420;2023-02-15T03:08:56;102425.81;;;-0.84;100.00
8585;BME280;7180;52.742;11.420;2023-02-15T03:11:23;102409.25;;;-0.97;100.00
8585;BME280;7180;52.742;11.420;2023-02-15T03:13:49;102410.91;;;-1.00;100.00
8585;BME280;7180;52.742;11.420;2023-02-15T03:16:16;102415.19;;;-1.02;100.00
8585;BME280;7180;52.742;11.420;2023-02-15T03:18:58;102412.59;;;-1.02;100.00
8585;BME280;7180;52.742;11.420;2023-02-15T03:21:35;102393.44;;;-1.15;100.00
8585;BME280;7180;52.742;11.420;2023-02-15T03:24:09;102402.91;;;-1.16;100.00
8585;BME280;7180;52.742;11.420;2023-02-15T03:26:36;102388.22;;;-1.20;100.00
8585;BME280;7180;52.742;11.420;2023-02-15T03:29:05;102383.84;;;-1.22;100.00
8585;BME280;7180;52.742;11.420;2023-02-15T03:31:36;102369.97;;;-1.29;100.00
8585;BME280;7180;52.742;11.420;2023-02-15T03:34:06;102376.88;;;-1.28;100.00
8585;BME280;7180;52.742;11.420;2023-02-15T03:36:53;102382.16;;;-1.22;100.00
8585;BME280;7180;52.742;11.420;2023-02-15T03:42:10;102383.03;;;-1.21;100.00
8585;BME280;7180;52.742;11.420;2023-02-15T03:47:15;102379.44;;;-1.29;100.00
8585;BME280;7180;52.742;11.420;2023-02-15T03:52:14;102362.69;;;-1.51;100.00
8585;BME280;7180;52.742;11.420;2023-02-15T03:54:41;102357.53;;;-1.51;100.00
8585;BME280;7180;52.742;11.420;2023-02-15T03:57:29;102358.31;;;-1.53;100.00
8585;BME280;7180;52.742;11.420;2023-02-15T04:00:21;102369.66;;;-1.47;100.00
8585;BME280;7180;52.742;11.420;2023-02-15T04:05:41;102369.47;;;-1.56;100.00
8585;BME280;7180;52.742;11.420;2023-02-15T04:08:08;102359.88;;;-1.64;100.00
8585;BME280;7180;52.742;11.420;2023-02-15T04:10:33;102360.72;;;-1.62;100.00
8585;BME280;7180;52.742;11.420;2023-02-15T04:13:18;102360.66;;;-1.67;100.00
8585;BME280;7180;52.742;11.420;2023-02-15T04:15:44;102351.97;;;-1.72;100.00
8585;BME280;7180;52.742;11.420;2023-02-15T04:18:29;102353.81;;;-1.65;100.00
8585;BME280;7180;52.742;11.420;2023-02-15T04:21:13;102350.47;;;-1.61;100.00
8585;BME280;7180;52.742;11.420;2023-02-15T04:23:56;102342.75;;;-1.61;100.00
8585;BME280;7180;52.742;11.420;2023-02-15T04:26:40;102349.66;;;-1.57;100.00
8585;BME280;7180;52.742;11.420;2023-02-15T04:29:06;102350.56;;;-1.55;100.00
8585;BME280;7180;52.742;11.420;2023-02-15T04:31:31;102338.50;;;-1.57;100.00
8585;BME280;7180;52.742;11.420;2023-02-15T04:33:56;102342.81;;;-1.55;100.00
8585;BME280;7180;52.742;11.420;2023-02-15T04:36:21;102342.09;;;-1.48;100.00
8585;BME280;7180;52.742;11.420;2023-02-15T04:38:47;102361.47;;;-1.25;100.00
8585;BME280;7180;52.742;11.420;2023-02-15T04:41:12;102352.06;;;-1.21;100.00
8585;BME280;7180;52.742;11.420;2023-02-15T04:43:38;102347.50;;;-1.36;100.00
8585;BME280;7180;52.742;11.420;2023-02-15T04:46:03;102327.44;;;-1.52;100.00
8585;BME280;7180;52.742;11.420;2023-02-15T04:48:29;102328.22;;;-1.56;100.00
8585;BME280;7180;52.742;11.420;2023-02-15T04:50:54;102324.44;;;-1.73;100.00
8585;BME280;7180;52.742;11.420;2023-02-15T04:53:19;102320.09;;;-1.75;100.00
8585;BME280;7180;52.742;11.420;2023-02-15T04:55:45;102317.47;;;-1.77;100.00
8585;BME280;7180;52.742;11.420;2023-02-15T04:58:10;102310.44;;;-1.85;100.00
8585;BME280;7180;52.742;11.420;2023-02-15T05:00:35;102306.56;;;-2.07;100.00
8585;BME280;7180;52.742;11.420;2023-02-15T05:03:00;102304.59;;;-2.20;100.00
8585;BME280;7180;52.742;11.420;2023-02-15T05:05:26;102310.63;;;-2.18;100.00
8585;BME280;7180;52.742;11.420;2023-02-15T05:07:51;102319.44;;;-2.08;100.00
8585;BME280;7180;52.742;11.420;2023-02-15T05:10:16;102310.06;;;-2.05;100.00
8585;BME280;7180;52.742;11.420;2023-02-15T05:12:42;102319.47;;;-2.07;100.00
8585;BME280;7180;52.742;11.420;2023-02-15T05:15:07;102304.84;;;-2.08;100.00
8585;BME280;7180;52.742;11.420;2023-02-15T05:17:33;102297.94;;;-2.09;100.00
8585;BME280;7180;52.742;11.420;2023-02-15T05:19:58;102287.59;;;-2.12;100.00
8585;BME280;7180;52.742;11.420;2023-02-15T05:22:24;102294.59;;;-2.05;100.00
8585;BME280;7180;52.742;11.420;2023-02-15T05:24:49;102292.91;;;-2.03;100.00
8585;BME280;7180;52.742;11.420;2023-02-15T05:27:33;102294.63;;;-2.02;100.00
8585;BME280;7180;52.742;11.420;2023-02-15T05:30:16;102288.66;;;-2.01;100.00
8585;BME280;7180;52.742;11.420;2023-02-15T05:32:42;102284.41;;;-1.99;100.00
8585;BME280;7180;52.742;11.420;2023-02-15T05:35:07;102280.19;;;-1.95;100.00
8585;BME280;7180;52.742;11.420;2023-02-15T05:37:33;102270.78;;;-1.92;100.00
8585;BME280;7180;52.742;11.420;2023-02-15T05:39:58;102264.69;;;-1.97;100.00
8585;BME280;7180;52.742;11.420;2023-02-15T05:42:23;102266.47;;;-1.93;100.00
8585;BME280;7180;52.742;11.420;2023-02-15T05:44:49;102273.41;;;-1.90;100.00
8585;BME280;7180;52.742;11.420;2023-02-15T05:47:14;102268.06;;;-1.99;100.00
8585;BME280;7180;52.742;11.420;2023-02-15T05:49:39;102278.50;;;-1.93;100.00
8585;BME280;7180;52.742;11.420;2023-02-15T05:52:04;102277.47;;;-2.01;100.00
8585;BME280;7180;52.742;11.420;2023-02-15T05:54:30;102278.06;;;-2.15;100.00
8585;BME280;7180;52.742;11.420;2023-02-15T05:56:55;102276.28;;;-2.19;100.00
8585;BME280;7180;52.742;11.420;2023-02-15T05:59:20;102275.41;;;-2.19;100.00
8585;BME280;7180;52.742;11.420;2023-02-15T06:01:46;102289.13;;;-2.20;100.00
8585;BME280;7180;52.742;11.420;2023-02-15T06:04:12;102284.91;;;-2.17;100.00
8585;BME280;7180;52.742;11.420;2023-02-15T06:06:37;102283.28;;;-2.13;100.00
8585;BME280;7180;52.742;11.420;2023-02-15T06:09:02;102294.56;;;-2.06;100.00
8585;BME280;7180;52.742;11.420;2023-02-15T06:11:28;102288.47;;;-2.10;100.00
8585;BME280;7180;52.742;11.420;2023-02-15T06:13:53;102292.97;;;-2.00;100.00
8585;BME280;7180;52.742;11.420;2023-02-15T06:16:18;102294.72;;;-1.99;100.00
8585;BME280;7180;52.742;11.420;2023-02-15T06:18:43;102289.56;;;-1.99;100.00
8585;BME280;7180;52.742;11.420;2023-02-15T06:21:09;102287.75;;;-2.03;100.00
8585;BME280;7180;52.742;11.420;2023-02-15T06:23:34;102296.50;;;-1.95;100.00
8585;BME280;7180;52.742;11.420;2023-02-15T06:25:59;102306.22;;;-1.82;100.00
8585;BME280;7180;52.742;11.420;2023-02-15T06:28:25;102299.31;;;-1.84;100.00
8585;BME280;7180;52.742;11.420;2023-02-15T06:30:51;102297.63;;;-1.82;100.00
8585;BME280;7180;52.742;11.420;2023-02-15T06:33:16;102301.19;;;-1.76;100.00
8585;BME280;7180;52.742;11.420;2023-02-15T06:35:42;102309.03;;;-1.70;100.00
8585;BME280;7180;52.742;11.420;2023-02-15T06:38:07;102310.16;;;-1.54;100.00
8585;BME280;7180;52.742;11.420;2023-02-15T06:40:32;102318.13;;;-1.41;100.00
8585;BME280;7180;52.742;11.420;2023-02-15T06:42:58;102324.34;;;-1.30;100.00
8585;BME280;7180;52.742;11.420;2023-02-15T06:45:23;102317.50;;;-1.29;100.00
8585;BME280;7180;52.742;11.420;2023-02-15T06:47:48;102324.69;;;-1.10;100.00
8585;BME280;7180;52.742;11.420;2023-02-15T06:50:13;102314.56;;;-0.98;100.00
8585;BME280;7180;52.742;11.420;2023-02-15T06:52:39;102319.75;;;-0.96;100.00
8585;BME280;7180;52.742;11.420;2023-02-15T06:55:04;102326.09;;;-0.76;100.00
8585;BME280;7180;52.742;11.420;2023-02-15T06:57:30;102328.81;;;-0.69;100.00
8585;BME280;7180;52.742;11.420;2023-02-15T06:59:55;102327.91;;;-0.72;100.00
8585;BME280;7180;52.742;11.420;2023-02-15T07:02:23;102328.94;;;-0.60;100.00
8585;BME280;7180;52.742;11.420;2023-02-15T07:04:48;102322.13;;;-0.53;100.00
8585;BME280;7180;52.742;11.420;2023-02-15T07:07:13;102334.38;;;-0.40;100.00
8585;BME280;7180;52.742;11.420;2023-02-15T07:09:39;102336.31;;;-0.27;100.00
8585;BME280;7180;52.742;11.420;2023-02-15T07:12:04;102340.88;;;-0.05;100.00
8585;BME280;7180;52.742;11.420;2023-02-15T07:14:48;102341.72;;;-0.09;100.00
8585;BME280;7180;52.742;11.420;2023-02-15T07:17:14;102337.44;;;-0.04;100.00
8585;BME280;7180;52.742;11.420;2023-02-15T07:19:39;102326.34;;;0.05;100.00
8585;BME280;7180;52.742;11.420;2023-02-15T07:22:04;102320.25;;;-0.02;100.00
8585;BME280;7180;52.742;11.420;2023-02-15T07:24:30;102311.66;;;0.02;100.00
8585;BME280;7180;52.742;11.420;2023-02-15T07:26:55;102309.31;;;0.22;100.00
8585;BME280;7180;52.742;11.420;2023-02-15T07:29:22;102308.34;;;0.12;100.00
8585;BME280;7180;52.742;11.420;2023-02-15T07:31:48;102298.00;;;0.15;100.00
8585;BME280;7180;52.742;11.420;2023-02-15T07:34:13;102298.91;;;0.20;100.00
8585;BME280;7180;52.742;11.420;2023-02-15T07:36:38;102284.09;;;0.04;100.00
8585;BME280;7180;52.742;11.420;2023-02-15T07:39:03;102294.72;;;0.31;100.00
8585;BME280;7180;52.742;11.420;2023-02-15T07:41:29;102277.16;;;0.00;100.00
8585;BME280;7180;52.742;11.420;2023-02-15T07:43:54;102271.94;;;-0.03;100.00
8585;BME280;7180;52.742;11.420;2023-02-15T07:46:19;102277.25;;;0.09;100.00
8585;BME280;7180;52.742;11.420;2023-02-15T07:48:46;102281.44;;;-0.02;100.00
8585;BME280;7180;52.742;11.420;2023-02-15T07:51:12;102282.47;;;0.12;100.00
8585;BME280;7180;52.742;11.420;2023-02-15T07:53:39;102283.34;;;0.13;100.00
8585;BME280;7180;52.742;11.420;2023-02-15T07:56:07;102283.56;;;0.34;100.00
8585;BME280;7180;52.742;11.420;2023-02-15T07:58:34;102291.41;;;0.41;100.00
8585;BME280;7180;52.742;11.420;2023-02-15T08:01:19;102275.31;;;-0.12;100.00
8585;BME280;7180;52.742;11.420;2023-02-15T08:03:45;102273.84;;;0.13;100.00
8585;BME280;7180;52.742;11.420;2023-02-15T08:06:10;102279.25;;;0.34;100.00
8585;BME280;7180;52.742;11.420;2023-02-15T08:08:38;102275.88;;;0.41;100.00
8585;BME280;7180;52.742;11.420;2023-02-15T08:11:06;102271.53;;;0.40;100.00
8585;BME280;7180;52.742;11.420;2023-02-15T08:13:54;102270.00;;;0.62;100.00
8585;BME280;7180;52.742;11.420;2023-02-15T08:18:49;102227.19;;;0.03;100.00
8585;BME280;7180;52.742;11.420;2023-02-15T08:21:15;102242.16;;;0.35;100.00
8585;BME280;7180;52.742;11.420;2023-02-15T08:23:40;102251.78;;;0.48;100.00
8585;BME280;7180;52.742;11.420;2023-02-15T08:26:05;102240.38;;;0.28;100.00
8585;BME280;7180;52.742;11.420;2023-02-15T08:28:31;102241.25;;;0.30;100.00
8585;BME280;7180;52.742;11.420;2023-02-15T08:31:04;102246.63;;;0.54;100.00
8585;BME280;7180;52.742;11.420;2023-02-15T08:33:29;102234.63;;;0.59;100.00
8585;BME280;7180;52.742;11.420;2023-02-15T08:35:54;102235.47;;;0.60;100.00
8585;BME280;7180;52.742;11.420;2023-02-15T08:38:20;102231.25;;;0.69;100.00
8585;BME280;7180;52.742;11.420;2023-02-15T08:40:45;102224.16;;;0.47;100.00
8585;BME280;7180;52.742;11.420;2023-02-15T08:43:10;102227.91;;;0.82;100.00
8585;BME280;7180;52.742;11.420;2023-02-15T08:45:36;102242.81;;;1.18;100.00
8585;BME280;7180;52.742;11.420;2023-02-15T08:48:01;102233.22;;;1.02;100.00
8585;BME280;7180;52.742;11.420;2023-02-15T08:50:26;102212.16;;;0.52;100.00
8585;BME280;7180;52.742;11.420;2023-02-15T08:52:51;102232.22;;;0.83;100.00
8585;BME280;7180;52.742;11.420;2023-02-15T08:55:17;102240.09;;;1.03;100.00
8585;BME280;7180;52.742;11.420;2023-02-15T08:57:42;102244.50;;;1.15;100.00
8585;BME280;7180;52.742;11.420;2023-02-15T09:00:10;102252.22;;;1.05;100.00
8585;BME280;7180;52.742;11.420;2023-02-15T09:02:37;102253.16;;;1.18;100.00
8585;BME280;7180;52.742;11.420;2023-02-15T09:05:02;102262.72;;;1.27;100.00
8585;BME280;7180;52.742;11.420;2023-02-15T09:07:27;102264.47;;;1.31;100.00
8585;BME280;7180;52.742;11.420;2023-02-15T09:09:53;102272.34;;;1.49;100.00
8585;BME280;7180;52.742;11.420;2023-02-15T09:12:19;102261.03;;;1.35;100.00
8585;BME280;7180;52.742;11.420;2023-02-15T09:14:44;102261.84;;;1.25;100.00
8585;BME280;7180;52.742;11.420;2023-02-15T09:17:09;102269.72;;;1.41;100.00
8585;BME280;7180;52.742;11.420;2023-02-15T09:19:34;102255.09;;;1.52;100.00
8585;BME280;7180;52.742;11.420;2023-02-15T09:22:00;102261.19;;;1.65;100.00
8585;BME280;7180;52.742;11.420;2023-02-15T09:24:25;102257.81;;;1.87;100.00
8585;BME280;7180;52.742;11.420;2023-02-15T09:26:50;102248.31;;;1.89;100.00
8585;BME280;7180;52.742;11.420;2023-02-15T09:29:17;102251.75;;;1.82;100.00
8585;BME280;7180;52.742;11.420;2023-02-15T09:31:48;102250.09;;;2.02;100.00
8585;BME280;7180;52.742;11.420;2023-02-15T09:34:15;102224.75;;;1.35;100.00
8585;BME280;7180;52.742;11.420;2023-02-15T09:36:42;102227.44;;;1.53;100.00
8585;BME280;7180;52.742;11.420;2023-02-15T09:39:11;102215.13;;;1.10;100.00
8585;BME280;7180;52.742;11.420;2023-02-15T09:44:40;102222.34;;;1.84;100.00
8585;BME280;7180;52.742;11.420;2023-02-15T09:50:27;102221.53;;;1.99;100.00
8585;BME280;7180;52.742;11.420;2023-02-15T09:55:54;102219.88;;;2.25;100.00
8585;BME280;7180;52.742;11.420;2023-02-15T10:04:16;102200.84;;;2.58;100.00
8585;BME280;7180;52.742;11.420;2023-02-15T10:09:58;102180.06;;;2.68;100.00
8585;BME280;7180;52.742;11.420;2023-02-15T10:20:46;102146.13;;;3.19;100.00
8585;BME280;7180;52.742;11.420;2023-02-15T10:25:57;102131.97;;;3.79;100.00
8585;BME280;7180;52.742;11.420;2023-02-15T10:31:19;102075.03;;;3.34;100.00
8585;BME280;7180;52.742;11.420;2023-02-15T10:33:48;102079.13;;;3.73;100.00
8585;BME280;7180;52.742;11.420;2023-02-15T10:41:49;102002.69;;;3.89;100.00
8585;BME280;7180;52.742;11.420;2023-02-15T10:44:27;101987.84;;;4.00;100.00
8585;BME280;7180;52.742;11.420;2023-02-15T10:57:02;101868.59;;;3.55;100.00
8585;BME280;7180;52.742;11.420;2023-02-15T11:02:01;101894.72;;;4.24;100.00
8585;BME280;7180;52.742;11.420;2023-02-15T11:05:35;101866.00;;;4.31;100.00
8585;BME280;7180;52.742;11.420;2023-02-15T11:07:41;101845.09;;;4.38;100.00
8585;BME280;7180;52.742;11.420;2023-02-15T11:10:32;101817.59;;;4.16;100.00
8585;BME280;7180;52.742;11.420;2023-02-15T11:13:04;101844.88;;;4.52;100.00
8585;BME280;7180;52.742;11.420;2023-02-15T11:15:35;101815.31;;;4.56;100.00
8585;BME280;7180;52.742;11.420;2023-02-15T11:18:13;101782.97;;;4.70;100.00
8585;BME280;7180;52.742;11.420;2023-02-15T11:20:55;101742.72;;;4.35;100.00
8585;BME280;7180;52.742;11.420;2023-02-15T11:23:21;101757.13;;;4.58;100.00
8585;BME280;7180;52.742;11.420;2023-02-15T11:25:58;101731.50;;;4.31;100.00
8585;BME280;7180;52.742;11.420;2023-02-15T11:28:31;101725.44;;;4.29;100.00
8585;BME280;7180;52.742;11.420;2023-02-15T11:31:02;101725.44;;;4.29;100.00
8585;BME280;7180;52.742;11.420;2023-02-15T11:33:40;101766.91;;;4.41;100.00
8585;BME280;7180;52.742;11.420;2023-02-15T11:36:12;101787.56;;;4.53;100.00
8585;BME280;7180;52.742;11.420;2023-02-15T11:38:39;101791.69;;;4.69;100.00
8585;BME280;7180;52.742;11.420;2023-02-15T11:41:14;101781.25;;;4.68;100.00
8585;BME280;7180;52.742;11.420;2023-02-15T11:43:56;101772.66;;;4.63;100.00
8585;BME280;7180;52.742;11.420;2023-02-15T11:46:23;101772.69;;;4.61;100.00
8585;BME280;7180;52.742;11.420;2023-02-15T11:48:49;101798.41;;;4.82;100.00
8585;BME280;7180;52.742;11.420;2023-02-15T11:51:16;101798.25;;;4.91;100.00
8585;BME280;7180;52.742;11.420;2023-02-15T11:53:43;101799.69;;;5.10;100.00
8585;BME280;7180;52.742;11.420;2023-02-15T11:56:14;101819.94;;;5.44;100.00
8585;BME280;7180;52.742;11.420;2023-02-15T11:59:01;101804.44;;;5.36;100.00
8585;BME280;7180;52.742;11.420;2023-02-15T12:01:32;101785.25;;;5.39;100.00
8585;BME280;7180;52.742;11.420;2023-02-15T12:07:02;101720.34;;;4.76;100.00
8585;BME280;7180;52.742;11.420;2023-02-15T12:12:37;101816.56;;;5.39;100.00
8585;BME280;7180;52.742;11.420;2023-02-15T12:15:05;101826.53;;;5.64;100.00
8585;BME280;7180;52.742;11.420;2023-02-15T12:17:50;101785.28;;;5.81;100.00
8585;BME280;7180;52.742;11.420;2023-02-15T12:23:02;101686.38;;;5.28;100.00
8585;BME280;7180;52.742;11.420;2023-02-15T12:25:42;101757.09;;;5.57;100.00
8585;BME280;7180;52.742;11.420;2023-02-15T12:28:38;101736.44;;;5.47;100.00
8585;BME280;7180;52.742;11.420;2023-02-15T12:31:17;101752.19;;;5.41;100.00
8585;BME280;7180;52.742;11.420;2023-02-15T12:33:45;101754.06;;;5.32;100.00
8585;BME280;7180;52.742;11.420;2023-02-15T12:36:18;101741.13;;;5.28;100.00
8585;BME280;7180;52.742;11.420;2023-02-15T12:39:02;101755.16;;;5.21;100.00
8585;BME280;7180;52.742;11.420;2023-02-15T12:41:28;101797.56;;;5.32;100.00
8585;BME280;7180;52.742;11.420;2023-02-15T12:44:15;101806.34;;;5.26;100.00
8585;BME280;7180;52.742;11.420;2023-02-15T12:46:40;101804.59;;;5.28;100.00
8585;BME280;7180;52.742;11.420;2023-02-15T12:54:28;101761.38;;;5.60;100.00
8585;BME280;7180;52.742;11.420;2023-02-15T12:56:55;101779.44;;;5.69;100.00
8585;BME280;7180;52.742;11.420;2023-02-15T12:59:22;101752.59;;;5.64;100.00
8585;BME280;7180;52.742;11.420;2023-02-15T13:01:48;101745.97;;;5.48;100.00
8585;BME280;7180;52.742;11.420;2023-02-15T13:04:27;101739.19;;;5.39;100.00
8585;BME280;7180;52.742;11.420;2023-02-15T13:06:57;101742.03;;;5.25;100.00
8585;BME280;7180;52.742;11.420;2023-02-15T13:09:37;101742.25;;;5.13;100.00
8585;BME280;7180;52.742;11.420;2023-02-15T13:14:36;101802.22;;;5.13;100.00
8585;BME280;7180;52.742;11.420;2023-02-15T13:17:04;101802.66;;;4.88;100.00
8585;BME280;7180;52.742;11.420;2023-02-15T13:19:40;101840.88;;;4.89;100.00
8585;BME280;7180;52.742;11.420;2023-02-15T13:22:12;101870.34;;;4.92;100.00
8585;BME280;7180;52.742;11.420;2023-02-15T13:24:51;101859.28;;;4.78;100.00
8585;BME280;7180;52.742;11.420;2023-02-15T13:27:23;101874.91;;;4.78;100.00
8585;BME280;7180;52.742;11.420;2023-02-15T13:29:52;101880.97;;;4.79;100.00
8585;BME280;7180;52.742;11.420;2023-02-15T13:34:49;101886.25;;;4.74;100.00
8585;BME280;7180;52.742;11.420;2023-02-15T13:37:21;101887.94;;;4.78;100.00
8585;BME280;7180;52.742;11.420;2023-02-15T13:42:44;101901.78;;;4.82;100.00
8585;BME280;7180;52.742;11.420;2023-02-15T13:45:30;101888.75;;;4.80;100.00
8585;BME280;7180;52.742;11.420;2023-02-15T13:51:06;101886.22;;;4.76;100.00
8585;BME280;7180;52.742;11.420;2023-02-15T13:59:19;101873.19;;;4.77;100.00
8585;BME280;7180;52.742;11.420;2023-02-15T14:05:13;101891.22;;;4.89;100.00
8585;BME280;7180;52.742;11.420;2023-02-15T14:10:24;101904.38;;;4.80;100.00
8585;BME280;7180;52.742;11.420;2023-02-15T14:13:05;101897.53;;;4.75;100.00
8585;BME280;7180;52.742;11.420;2023-02-15T14:15:47;101903.69;;;4.71;100.00
8585;BME280;7180;52.742;11.420;2023-02-15T14:18:25;101901.94;;;4.70;100.00
8585;BME280;7180;52.742;11.420;2023-02-15T14:22:07;101920.09;;;4.77;100.00
8585;BME280;7180;52.742;11.420;2023-02-15T14:24:40;101915.69;;;4.81;100.00
8585;BME280;7180;52.742;11.420;2023-02-15T14:27:27;101914.78;;;4.83;100.00
8585;BME280;7180;52.742;11.420;2023-02-15T14:30:00;101907.81;;;4.85;100.00
8585;BME280;7180;52.742;11.420;2023-02-15T14:32:35;101897.41;;;4.85;100.00
8585;BME280;7180;52.742;11.420;2023-02-15T14:35:05;101887.94;;;4.77;100.00
8585;BME280;7180;52.742;11.420;2023-02-15T14:37:58;101885.53;;;4.63;100.00
8585;BME280;7180;52.742;11.420;2023-02-15T14:40:34;101892.50;;;4.61;100.00
8585;BME280;7180;52.742;11.420;2023-02-15T14:46:30;101915.03;;;4.65;100.00
8585;BME280;7180;52.742;11.420;2023-02-15T14:48:59;101918.50;;;4.67;100.00
8585;BME280;7180;52.742;11.420;2023-02-15T14:56:45;101933.06;;;4.82;100.00
8585;BME280;7180;52.742;11.420;2023-02-15T15:01:37;101944.34;;;4.81;100.00
8585;BME280;7180;52.742;11.420;2023-02-15T15:04:22;101947.84;;;4.80;100.00
8585;BME280;7180;52.742;11.420;2023-02-15T15:07:21;101948.66;;;4.85;100.00
8585;BME280;7180;52.742;11.420;2023-02-15T15:09:45;101952.28;;;4.72;100.00
8585;BME280;7180;52.742;11.420;2023-02-15T15:14:46;101929.16;;;4.46;100.00
8585;BME280;7180;52.742;11.420;2023-02-15T15:17:13;101930.97;;;4.41;100.00